Impacts METAR Board
IDs:

KGEG - Spokane Intl, WA, US

Updated at: 2100 UTC 08 Aug 2020
Potential Impact None Slight Moderate High
Time 08/09Z 08/10Z 08/11Z 08/12Z 08/13Z 08/14Z 08/15Z 08/16Z 08/17Z 08/18Z 08/19Z 08/20Z 08/21Z
Temp58 58 58 57 57 58 60 63 64 66 70 71 74
Dewpt36 36 36 38 38 38 38 39 41 42 43 44 45
Altim30.06 30.05 30.05 30.05 30.06 30.07 30.08 30.09 30.09 30.09 30.08 30.07 30.05
VIS10 10 10 10 10 10 10 10 10 10 10 10 10
CIG150 140 140 140 90 80 80 70 60 65 85 85 90
CoverOVCOVCBKNBKNBKNBKNBKNBKNBKNBKNBKNBKNBKN
FltCatVFRVFRVFRVFRVFRVFRVFRVFRVFRVFRVFRVFRVFR
WX--------------------------
WDir170170170150170170190200210190210220160
WSpd6 6 7 9 5 8 8 7 11 7 6 9 8
WGst-- -- -- -- -- -- -- -- -- -- 17 -- --
Raw hourly METARs
KGEG 080853Z 17006KT 10SM FEW140 BKN150 OVC170 14/02 A3006 RMK AO2 SLP169 T01440022 58004
KGEG 080953Z 17006KT 10SM BKN140 OVC190 14/02 A3005 RMK AO2 SLP167 T01440022
KGEG 081053Z 17007KT 10SM FEW090 BKN140 BKN200 14/02 A3005 RMK AO2 SLP165 T01440022
KGEG 081153Z 15009KT 10SM FEW095 BKN140 BKN190 14/03 A3005 RMK AO2 SLP167 T01390033 10189 20139 55001
KGEG 081253Z 17005KT 10SM FEW080 BKN090 BKN120 14/03 A3006 RMK AO2 SLP169 T01390033
KGEG 081353Z 17008KT 10SM FEW065 BKN080 14/03 A3007 RMK AO2 SLP172 T01440033
KGEG 081453Z 19008KT 10SM FEW065 BKN080 16/03 A3008 RMK AO2 SLP175 T01560033 51007
KGEG 081553Z 20007KT 10SM BKN070 17/04 A3009 RMK AO2 SLP178 T01720039
KGEG 081653Z 21011KT 10SM BKN060 BKN080 18/05 A3009 RMK AO2 RAB31E43 SLP179 P0000 T01780050
KGEG 081753Z 19007KT 10SM FEW030 BKN065 BKN085 19/06 A3009 RMK AO2 SLP177 SHRA DSNT NE 60000 T01890056 10189 20139 50003
KGEG 081853Z 21006G17KT 10SM FEW035 SCT060 BKN085 BKN200 21/06 A3008 RMK AO2 SLP175 T02110061
KGEG 081953Z 22009KT 190V250 10SM FEW050 SCT070 BKN085 BKN200 22/07 A3007 RMK AO2 SLP171 T02170067
KGEG 082053Z 16008KT 10SM FEW050 SCT070 BKN090 BKN200 23/07 A3005 RMK AO2 SLP166 T02330072 58010



Page loaded:  21:45 UTC  |   02:45 PM Pacific  |   03:45 PM Mountain  |   04:45 PM Central  |   05:45 PM Eastern

 

ADVISORIES

FORECASTS

FORECASTS

OBSERVATIONS

USER TOOLS

ABOUT US